Time;durP1;ratioP1;P1;durP2;ratioP2;P2;SDS_P1;SDS_P2;PMS_P1;PMS_P2;Temp;Humidity;BMP_temperature;BMP_pressure;BME280_temperature;BME280_humidity;BME280_pressure;Samples;Min_cycle;Max_cycle;Signal;HPM_P1;HPM_P2
2022/12/07 00:22:10;;;;;;;11.83;8.83;;;13.20;97.10;;;;;;4589870;19;20010;-31
2022/12/07 00:23:43;;;;;;;11.17;8.80;;;13.20;97.00;;;;;;4591652;19;20441;-29
2022/12/07 00:25:15;;;;;;;11.27;8.77;;;13.20;97.00;;;;;;4592108;19;20077;-36
2022/12/07 00:26:48;;;;;;;12.33;8.67;;;13.20;97.00;;;;;;4591804;19;20011;-38
2022/12/07 00:28:20;;;;;;;;;;;13.20;96.90;;;;;;4592480;19;20018;-35
2022/12/07 00:29:51;;;;;;;12.47;9.20;;;13.20;96.90;;;;;;4591732;19;20318;-33
2022/12/07 00:31:24;;;;;;;10.73;9.37;;;13.20;96.90;;;;;;4592017;19;20014;-32
2022/12/07 00:32:55;;;;;;;10.17;8.57;;;13.20;96.90;;;;;;4592148;19;20015;-35
2022/12/07 00:34:28;;;;;;;10.10;8.03;;;13.20;97.00;;;;;;4590829;19;20018;-34
2022/12/07 00:36:00;;;;;;;10.33;8.27;;;13.20;97.00;;;;;;4591091;19;20522;-35
2022/12/07 00:37:32;;;;;;;10.23;9.13;;;13.20;97.00;;;;;;4590721;19;20514;-34
2022/12/07 00:39:03;;;;;;;10.82;7.95;;;13.20;97.00;;;;;;4590616;19;20377;-33
2022/12/07 00:40:36;;;;;;;10.80;7.93;;;13.20;96.90;;;;;;4591529;19;20003;-37
2022/12/07 00:42:07;;;;;;;8.80;7.88;;;13.20;96.90;;;;;;4590710;19;20021;-37
2022/12/07 00:43:38;;;;;;;10.73;8.27;;;13.20;96.90;;;;;;4591137;19;20021;-36
2022/12/07 00:45:11;;;;;;;12.23;8.77;;;13.20;96.90;;;;;;4592856;19;20337;-32
2022/12/07 00:46:42;;;;;;;12.70;8.60;;;13.20;96.90;;;;;;4591536;19;20078;-32
2022/12/07 00:48:14;;;;;;;11.80;8.27;;;13.20;96.90;;;;;;4591536;19;20019;-33
2022/12/07 00:49:48;;;;;;;12.20;8.70;;;13.20;96.90;;;;;;4591320;19;20003;-29
2022/12/07 00:51:21;;;;;;;9.67;8.43;;;13.20;96.80;;;;;;4591332;19;20022;-34
2022/12/07 00:52:55;;;;;;;10.07;8.03;;;13.30;96.80;;;;;;4590149;19;20031;-32
2022/12/07 00:54:26;;;;;;;11.82;9.00;;;13.30;96.70;;;;;;4591226;19;20018;-30
2022/12/07 00:55:57;;;;;;;12.30;8.70;;;13.30;96.70;;;;;;4589904;19;20015;-30
2022/12/07 00:57:29;;;;;;;11.13;9.05;;;13.30;96.60;;;;;;4590611;19;20039;-29
2022/12/07 00:59:02;;;;;;;11.37;9.27;;;13.30;96.60;;;;;;4590536;19;20014;-30
2022/12/07 01:00:38;;;;;;;9.83;7.73;;;13.30;96.60;;;;;;4591208;19;20455;-33
2022/12/07 01:02:11;;;;;;;10.47;8.30;;;13.30;96.60;;;;;;4591397;19;20019;-33
2022/12/07 01:03:42;;;;;;;;;;;13.30;96.60;;;;;;4592195;19;20714;-35
2022/12/07 01:05:13;;;;;;;9.30;6.50;;;13.30;96.80;;;;;;4591231;19;19930;-30
2022/12/07 01:06:45;;;;;;;9.15;7.13;;;13.30;96.50;;;;;;4590956;19;20449;-29
2022/12/07 01:08:17;;;;;;;8.80;6.47;;;13.30;96.50;;;;;;4591040;19;20015;-30
2022/12/07 01:09:48;;;;;;;10.07;7.57;;;13.30;96.50;;;;;;4590931;19;20464;-35
2022/12/07 01:11:21;;;;;;;8.18;6.07;;;13.30;96.50;;;;;;4591066;19;20037;-28
2022/12/07 01:12:52;;;;;;;8.63;6.47;;;13.30;96.50;;;;;;4590775;19;20015;-33
2022/12/07 01:14:24;;;;;;;7.67;6.70;;;13.30;96.40;;;;;;4591034;19;20010;-29
2022/12/07 01:15:59;;;;;;;9.10;6.75;;;13.30;96.40;;;;;;4590915;19;20081;-33
2022/12/07 01:17:30;;;;;;;8.67;6.67;;;13.30;96.40;;;;;;4590885;19;20011;-30
2022/12/07 01:19:01;;;;;;;9.05;6.70;;;13.30;96.40;;;;;;4590035;19;20024;-32
2022/12/07 01:20:33;;;;;;;;;;;13.30;96.40;;;;;;4591572;19;20011;-31
2022/12/07 01:26:09;;;;;;;11.67;8.70;;;13.30;96.40;;;;;;4590222;19;20066;-30
2022/12/07 01:27:41;;;;;;;9.00;7.20;;;13.30;96.40;;;;;;4589581;19;20017;-35
2022/12/07 01:29:13;;;;;;;11.20;8.40;;;13.30;96.40;;;;;;4590273;19;20046;-34
2022/12/07 01:31:01;;;;;;;12.73;9.07;;;13.30;96.40;;;;;;4590643;19;20079;-29
2022/12/07 01:32:33;;;;;;;10.47;7.70;;;13.30;96.40;;;;;;4589442;19;20011;-33
2022/12/07 01:34:04;;;;;;;10.03;7.70;;;13.30;96.50;;;;;;4590294;19;20014;-29
2022/12/07 01:37:27;;;;;;;8.63;7.17;;;13.30;96.50;;;;;;4590927;19;20054;-32
2022/12/07 01:39:03;;;;;;;11.45;7.68;;;13.30;96.50;;;;;;4589613;19;20011;-33
2022/12/07 01:40:35;;;;;;;8.13;6.50;;;13.30;96.50;;;;;;4590314;19;20515;-31
2022/12/07 01:42:11;;;;;;;7.95;6.40;;;13.30;96.40;;;;;;4590221;19;20477;-30
2022/12/07 01:44:07;;;;;;;8.57;6.40;;;13.30;96.40;;;;;;4590666;19;20018;-32
2022/12/07 01:45:42;;;;;;;13.27;8.87;;;13.30;96.40;;;;;;4590506;19;20010;-27
2022/12/07 01:47:14;;;;;;;16.50;9.37;;;13.30;96.40;;;;;;4590259;19;20017;-28
2022/12/07 01:48:45;;;;;;;11.27;8.07;;;13.30;96.40;;;;;;4588751;19;20504;-30
2022/12/07 01:50:18;;;;;;;12.10;8.23;;;13.20;96.40;;;;;;4589245;19;20709;-34
2022/12/07 01:51:52;;;;;;;14.30;9.03;;;13.30;96.40;;;;;;4588818;19;20010;-35
2022/12/07 01:53:25;;;;;;;16.70;12.17;;;13.20;96.40;;;;;;4588858;19;20450;-28
2022/12/07 01:55:04;;;;;;;12.43;9.20;;;13.30;96.40;;;;;;4590208;19;20475;-28
2022/12/07 01:56:35;;;;;;;18.17;12.33;;;13.20;96.40;;;;;;4588106;19;20018;-28
2022/12/07 01:58:06;;;;;;;11.32;7.50;;;13.20;96.40;;;;;;4588802;19;20031;-28
2022/12/07 01:59:38;;;;;;;12.13;8.98;;;13.30;96.40;;;;;;4588588;19;20011;-27
2022/12/07 02:01:09;;;;;;;10.93;8.27;;;13.30;96.40;;;;;;4590116;19;20010;-29
2022/12/07 02:02:43;;;;;;;;;;;13.20;96.40;;;;;;4590796;19;20018;-29
2022/12/07 02:04:14;;;;;;;11.37;7.83;;;13.30;96.40;;;;;;4589936;19;20242;-28
2022/12/07 02:05:48;;;;;;;10.67;7.77;;;13.20;96.40;;;;;;4588645;19;20018;-28
2022/12/07 02:07:20;;;;;;;10.63;7.80;;;13.20;96.40;;;;;;4589662;19;20039;-27
2022/12/07 02:08:53;;;;;;;11.23;8.70;;;13.20;96.40;;;;;;4588735;19;20018;-27
2022/12/07 02:10:27;;;;;;;11.10;9.18;;;13.30;96.40;;;;;;4589290;19;20564;-27
2022/12/07 02:11:59;;;;;;;12.70;9.60;;;13.30;96.40;;;;;;4589232;19;20485;-27
2022/12/07 02:13:31;;;;;;;12.38;9.65;;;13.30;96.40;;;;;;4588666;19;20011;-29
2022/12/07 02:15:04;;;;;;;13.03;9.47;;;13.20;96.40;;;;;;4589848;19;20120;-31
2022/12/07 02:16:50;;;;;;;13.80;10.55;;;13.20;96.50;;;;;;4588317;19;20018;-29
2022/12/07 02:18:39;;;;;;;12.60;9.33;;;13.20;96.50;;;;;;4589346;19;20551;-32
2022/12/07 02:20:21;;;;;;;10.57;8.03;;;13.20;96.50;;;;;;4589816;19;20491;-30
2022/12/07 02:22:16;;;;;;;11.63;9.30;;;13.20;96.50;;;;;;4588168;19;20010;-33
2022/12/07 02:24:22;;;;;;;11.63;8.37;;;13.20;96.50;;;;;;4589477;19;20010;-34
2022/12/07 02:26:27;;;;;;;10.37;7.63;;;13.20;96.40;;;;;;4588332;19;20014;-34
2022/12/07 02:28:18;;;;;;;9.63;7.67;;;13.20;96.30;;;;;;4589784;19;20460;-33
2022/12/07 02:30:10;;;;;;;9.17;7.37;;;13.20;96.40;;;;;;4589562;19;20018;-29
2022/12/07 02:32:18;;;;;;;9.40;7.50;;;13.30;96.40;;;;;;4588301;19;20028;-31
2022/12/07 02:34:11;;;;;;;14.07;10.30;;;13.30;96.40;;;;;;4589500;19;20495;-28
2022/12/07 02:36:03;;;;;;;10.50;8.73;;;13.20;96.40;;;;;;4587296;19;20015;-29
2022/12/07 02:37:59;;;;;;;9.67;7.63;;;13.20;96.40;;;;;;4589661;19;20094;-32
2022/12/07 02:39:53;;;;;;;9.93;7.70;;;13.20;96.40;;;;;;4588316;19;20142;-30
2022/12/07 02:41:32;;;;;;;11.63;8.07;;;13.20;96.40;;;;;;4586775;19;20573;-29
2022/12/07 02:43:10;;;;;;;10.67;7.63;;;13.20;96.40;;;;;;4586812;19;20050;-29
2022/12/07 02:44:42;;;;;;;10.77;8.43;;;13.20;96.50;;;;;;4588582;19;20019;-30
2022/12/07 02:46:24;;;;;;;10.43;8.45;;;13.20;96.50;;;;;;4589275;19;21036;-28
2022/12/07 02:47:58;;;;;;;10.63;8.17;;;13.30;96.50;;;;;;4589467;19;20026;-30
2022/12/07 02:49:32;;;;;;;10.57;8.53;;;13.30;96.50;;;;;;4589172;19;20102;-30
2022/12/07 02:51:03;;;;;;;10.33;7.80;;;13.20;96.50;;;;;;4586050;19;20014;-28
2022/12/07 02:52:34;;;;;;;;;;;13.20;96.50;;;;;;4590588;19;20039;-29
2022/12/07 02:54:13;;;;;;;9.70;7.53;;;13.20;96.50;;;;;;4588443;19;20344;-29
2022/12/07 02:55:44;;;;;;;8.17;6.63;;;13.20;96.50;;;;;;4585797;19;20014;-28
2022/12/07 02:57:31;;;;;;;6.55;5.72;;;13.20;96.50;;;;;;4589336;19;20449;-31
2022/12/07 02:59:37;;;;;;;7.27;5.57;;;13.20;96.50;;;;;;4588830;19;20476;-29
2022/12/07 03:01:32;;;;;;;7.13;5.77;;;13.20;96.40;;;;;;4591573;19;20063;-30
2022/12/07 03:03:13;;;;;;;6.93;5.03;;;13.20;96.30;;;;;;4592186;19;20023;-30
2022/12/07 03:05:03;;;;;;;7.27;5.73;;;13.20;96.30;;;;;;4591723;19;20021;-36
2022/12/07 03:06:38;;;;;;;7.23;5.63;;;13.20;96.20;;;;;;4593863;19;20445;-29
2022/12/07 03:08:33;;;;;;;8.73;6.87;;;13.20;96.20;;;;;;4593190;19;20051;-32
2022/12/07 03:10:24;;;;;;;6.60;5.47;;;13.20;96.20;;;;;;4591110;19;20025;-32
2022/12/07 03:12:16;;;;;;;6.27;5.20;;;13.20;96.20;;;;;;4592814;19;20014;-28
2022/12/07 03:13:56;;;;;;;5.88;4.50;;;13.20;96.20;;;;;;4592282;19;20494;-29
2022/12/07 03:15:34;;;;;;;5.83;4.67;;;13.20;96.20;;;;;;4592973;19;20089;-29
2022/12/07 03:17:14;;;;;;;5.47;4.60;;;13.20;96.20;;;;;;4591223;19;20501;-30
2022/12/07 03:19:18;;;;;;;6.17;5.17;;;13.20;96.30;;;;;;4591659;19;20018;-30
2022/12/07 03:20:52;;;;;;;7.50;6.30;;;13.20;96.30;;;;;;4592496;19;20021;-28
2022/12/07 03:22:31;;;;;;;6.77;5.30;;;13.20;96.30;;;;;;4589967;19;20495;-29
2022/12/07 03:24:37;;;;;;;7.27;4.97;;;13.20;96.20;;;;;;4592354;19;20090;-31
2022/12/07 03:26:35;;;;;;;6.67;4.70;;;13.30;96.30;;;;;;4590934;19;20014;-28
2022/12/07 03:28:09;;;;;;;6.03;4.57;;;13.20;96.20;;;;;;4593093;19;20019;-28
2022/12/07 03:29:48;;;;;;;6.63;4.40;;;13.20;96.20;;;;;;4592292;19;20027;-29
2022/12/07 03:31:26;;;;;;;6.13;4.30;;;13.20;96.20;;;;;;4591646;19;20010;-28
2022/12/07 03:33:02;;;;;;;6.93;4.23;;;13.20;96.20;;;;;;4593653;19;20017;-30
2022/12/07 03:34:50;;;;;;;6.00;4.20;;;13.20;96.20;;;;;;4592124;19;20441;-29
2022/12/07 03:36:28;;;;;;;6.07;3.97;;;13.20;96.20;;;;;;4591417;19;20114;-32
2022/12/07 03:38:34;;;;;;;6.00;4.60;;;13.20;96.20;;;;;;4593605;19;20018;-33
2022/12/07 03:40:50;;;;;;;5.77;4.40;;;13.20;96.20;;;;;;4591088;19;20017;-29
2022/12/07 03:42:22;;;;;;;6.23;4.50;;;13.20;96.20;;;;;;4591868;19;20028;-34
2022/12/07 03:43:55;;;;;;;6.17;4.93;;;12.20;96.60;;;;;;4592603;19;20468;-28
2022/12/07 03:45:57;;;;;;;5.13;4.57;;;10.70;98.80;;;;;;4590337;19;20578;-29
2022/12/07 03:48:15;;;;;;;5.80;5.20;;;9.80;99.90;;;;;;4592936;19;20509;-32
2022/12/07 03:49:50;;;;;;;6.37;5.77;;;9.40;99.90;;;;;;4590210;19;20485;-33
2022/12/07 03:51:36;;;;;;;6.40;5.53;;;9.20;99.90;;;;;;4590174;19;21022;-37
2022/12/07 03:53:36;;;;;;;7.30;5.47;;;9.20;99.90;;;;;;4590289;19;21132;-31
2022/12/07 03:55:36;;;;;;;5.67;4.83;;;9.10;99.90;;;;;;4590153;19;20538;-27
2022/12/07 03:57:07;;;;;;;6.13;5.33;;;9.00;99.90;;;;;;4590384;19;20514;-28
2022/12/07 03:58:42;;;;;;;6.50;5.72;;;9.00;99.90;;;;;;4591472;19;20510;-38
2022/12/07 04:00:14;;;;;;;5.80;4.73;;;9.00;99.90;;;;;;4591602;19;20018;-30
2022/12/07 04:01:56;;;;;;;5.27;4.77;;;9.00;99.90;;;;;;4590489;19;20452;-31
2022/12/07 04:03:28;;;;;;;5.43;4.80;;;9.00;99.90;;;;;;4592795;19;21065;-30
2022/12/07 04:05:01;;;;;;;5.77;5.17;;;9.00;99.90;;;;;;4591425;19;20493;-34
2022/12/07 04:06:37;;;;;;;5.37;4.87;;;8.90;99.90;;;;;;4592336;19;21105;-38
2022/12/07 04:08:14;;;;;;;6.40;5.50;;;8.90;99.90;;;;;;4591480;19;20492;-31
2022/12/07 04:11:38;;;;;;;7.20;6.15;;;8.90;99.90;;;;;;4591046;19;20437;-31
2022/12/07 04:13:09;;;;;;;6.70;6.00;;;8.90;99.90;;;;;;4590723;19;20021;-28
2022/12/07 04:14:40;;;;;;;7.20;5.57;;;8.90;99.90;;;;;;4592489;19;20014;-27
2022/12/07 04:16:11;;;;;;;7.25;6.43;;;8.90;99.90;;;;;;4591395;19;20015;-30
2022/12/07 04:17:42;;;;;;;7.55;6.30;;;8.90;99.90;;;;;;4590438;19;20014;-31
2022/12/07 04:19:14;;;;;;;7.07;6.38;;;8.90;99.90;;;;;;4591470;19;20494;-31
2022/12/07 04:20:46;;;;;;;7.65;6.43;;;8.90;99.90;;;;;;4590999;19;20047;-33
2022/12/07 04:22:17;;;;;;;9.07;7.03;;;8.90;99.90;;;;;;4590889;19;20377;-32
2022/12/07 04:23:48;;;;;;;6.97;6.22;;;8.90;99.90;;;;;;4590100;19;20513;-32
2022/12/07 04:25:19;;;;;;;7.38;6.18;;;8.90;99.90;;;;;;4589311;19;20022;-33
2022/12/07 04:26:50;;;;;;;7.88;6.93;;;8.90;99.90;;;;;;4591908;19;20021;-29
2022/12/07 04:28:21;;;;;;;8.50;7.10;;;8.90;99.90;;;;;;4589626;19;20014;-35
2022/12/07 04:29:52;;;;;;;8.03;6.63;;;8.90;99.90;;;;;;4590936;19;20618;-36
2022/12/07 04:31:23;;;;;;;8.20;6.63;;;8.90;99.90;;;;;;4589318;19;20440;-30
2022/12/07 04:32:54;;;;;;;7.40;6.53;;;8.90;99.90;;;;;;4591584;19;20046;-29
2022/12/07 04:34:25;;;;;;;6.97;6.22;;;9.00;99.90;;;;;;4592236;19;20018;-30
2022/12/07 04:35:56;;;;;;;6.32;5.43;;;8.90;99.90;;;;;;4591631;19;20015;-35
2022/12/07 04:37:27;;;;;;;7.85;7.10;;;8.90;99.90;;;;;;4591875;19;20010;-32
2022/12/07 04:38:58;;;;;;;7.72;6.47;;;8.90;99.90;;;;;;4591422;19;20002;-29
2022/12/07 04:40:29;;;;;;;7.40;6.65;;;8.90;99.90;;;;;;4592180;19;20014;-31
2022/12/07 04:42:00;;;;;;;7.93;7.10;;;8.90;99.90;;;;;;4591654;19;20023;-31
2022/12/07 04:43:31;;;;;;;6.80;6.10;;;8.90;99.90;;;;;;4591737;19;20010;-27
2022/12/07 04:45:03;;;;;;;7.18;5.93;;;8.90;99.90;;;;;;4591537;19;20468;-31
2022/12/07 04:46:34;;;;;;;6.88;5.60;;;8.90;99.90;;;;;;4591364;19;20074;-30
2022/12/07 04:48:05;;;;;;;6.72;5.78;;;9.00;99.90;;;;;;4591153;19;20015;-34
2022/12/07 04:49:36;;;;;;;7.38;6.25;;;9.00;99.90;;;;;;4592551;19;20018;-33
2022/12/07 04:51:07;;;;;;;8.60;7.20;;;9.00;99.90;;;;;;4592399;19;20022;-29
2022/12/07 04:52:38;;;;;;;10.07;7.63;;;9.00;99.90;;;;;;4591627;19;20010;-34
2022/12/07 04:54:09;;;;;;;8.20;6.65;;;9.00;99.90;;;;;;4589919;19;20010;-33
2022/12/07 04:55:40;;;;;;;8.00;6.55;;;9.00;99.90;;;;;;4590055;19;20021;-31
2022/12/07 04:57:11;;;;;;;9.27;7.20;;;9.00;99.90;;;;;;4590878;19;20711;-29
2022/12/07 04:58:43;;;;;;;8.40;6.38;;;9.10;99.90;;;;;;4589690;19;20381;-30
2022/12/07 05:00:14;;;;;;;9.77;7.25;;;9.00;99.90;;;;;;4590805;19;20070;-31
2022/12/07 05:01:45;;;;;;;9.02;7.55;;;9.10;99.90;;;;;;4589987;19;20018;-32
2022/12/07 05:03:16;;;;;;;8.35;7.43;;;9.00;99.90;;;;;;4591672;19;20034;-31
2022/12/07 05:04:47;;;;;;;8.33;6.80;;;9.00;99.90;;;;;;4591025;19;20011;-30
2022/12/07 05:06:18;;;;;;;8.18;6.97;;;9.00;99.90;;;;;;4591739;19;20449;-34
2022/12/07 05:07:50;;;;;;;7.15;6.28;;;9.00;99.90;;;;;;4592121;19;20014;-30
2022/12/07 05:09:20;;;;;;;8.13;6.35;;;8.90;99.90;;;;;;4591106;19;20480;-31
2022/12/07 05:24:51;;;;;;;8.27;7.33;;;8.80;99.90;;;;;;4588381;19;21128;-30
2022/12/07 05:26:21;;;;;;;8.93;8.02;;;8.80;99.90;;;;;;4591948;19;20492;-35
2022/12/07 05:27:54;;;;;;;9.57;7.85;;;8.80;99.90;;;;;;4590099;19;20011;-36
2022/12/07 05:29:25;;;;;;;8.40;7.10;;;8.70;99.90;;;;;;4589486;19;20019;-32
2022/12/07 05:30:56;;;;;;;9.35;7.93;;;8.70;99.90;;;;;;4589924;19;20452;-30
2022/12/07 05:32:28;;;;;;;8.88;7.72;;;8.70;99.90;;;;;;4591908;19;20017;-33
2022/12/07 05:33:59;;;;;;;8.13;7.30;;;8.70;99.90;;;;;;4591271;19;20021;-29
2022/12/07 05:35:31;;;;;;;9.75;8.65;;;8.70;99.90;;;;;;4591817;19;20741;-27
2022/12/07 05:37:02;;;;;;;9.63;8.07;;;8.70;99.90;;;;;;4591512;19;20018;-31
2022/12/07 05:38:33;;;;;;;9.70;8.70;;;8.70;99.90;;;;;;4590656;19;20457;-36
2022/12/07 05:40:05;;;;;;;10.20;8.77;;;8.70;99.90;;;;;;4589576;19;20025;-30
2022/12/07 05:43:26;;;;;;;10.13;8.13;;;8.70;99.90;;;;;;4589927;19;20023;-31
2022/12/07 05:44:57;;;;;;;10.03;8.93;;;8.70;99.90;;;;;;4589146;19;20522;-34
2022/12/07 05:46:27;;;;;;;8.93;8.00;;;8.70;99.90;;;;;;4589155;19;20493;-32
2022/12/07 05:48:00;;;;;;;9.37;8.20;;;8.70;99.90;;;;;;4591794;19;20010;-28
2022/12/07 05:49:31;;;;;;;10.95;9.32;;;8.60;99.90;;;;;;4591628;19;20509;-33
2022/12/07 05:51:02;;;;;;;10.57;9.13;;;8.60;99.90;;;;;;4590844;19;20344;-30
2022/12/07 05:52:33;;;;;;;9.15;8.25;;;8.60;99.90;;;;;;4590671;19;20018;-32
2022/12/07 05:54:04;;;;;;;10.60;9.07;;;8.60;99.90;;;;;;4590417;19;20466;-33
2022/12/07 05:55:35;;;;;;;9.80;8.60;;;8.60;99.90;;;;;;4590097;19;20015;-31
2022/12/07 05:57:06;;;;;;;10.40;9.23;;;8.60;99.90;;;;;;4588243;19;20018;-30
2022/12/07 06:00:26;;;;;;;10.23;9.13;;;8.60;99.90;;;;;;4589310;19;20393;-34
2022/12/07 06:02:02;;;;;;;10.40;9.13;;;8.60;99.90;;;;;;4589415;19;20429;-30
2022/12/07 06:03:33;;;;;;;11.73;9.90;;;8.60;99.90;;;;;;4588550;19;20014;-30
2022/12/07 06:05:05;;;;;;;10.52;8.63;;;8.50;99.90;;;;;;4589045;19;20460;-34
2022/12/07 06:06:55;;;;;;;;;;;8.60;99.90;;;;;;4591225;19;20011;-33
2022/12/07 06:08:26;;;;;;;7.93;6.37;;;8.50;99.90;;;;;;4591982;19;19919;-33
2022/12/07 06:09:58;;;;;;;8.23;7.10;;;8.50;99.90;;;;;;4591010;19;20526;-29
2022/12/07 06:13:37;;;;;;;8.43;6.93;;;8.50;99.90;;;;;;4586433;19;20440;-31
2022/12/07 06:15:09;;;;;;;9.90;7.13;;;8.50;99.90;;;;;;4588692;19;20541;-28
2022/12/07 06:16:41;;;;;;;7.23;6.20;;;8.40;99.90;;;;;;4588705;19;20815;-34
2022/12/07 06:18:12;;;;;;;10.40;5.90;;;8.70;99.90;;;;;;4587904;19;20457;-33
2022/12/07 06:19:42;;;;;;;8.68;5.82;;;9.40;99.90;;;;;;4586657;19;20018;-35
2022/12/07 06:21:14;;;;;;;8.38;6.45;;;10.00;99.90;;;;;;4587573;19;20464;-32
2022/12/07 06:22:45;;;;;;;8.35;6.18;;;10.50;99.90;;;;;;4587477;19;20053;-31
2022/12/07 06:24:16;;;;;;;12.63;8.95;;;10.80;99.90;;;;;;4585578;19;20019;-31
2022/12/07 06:25:47;;;;;;;17.33;11.45;;;11.00;99.90;;;;;;4584500;19;20046;-31
2022/12/07 06:27:18;;;;;;;17.27;12.57;;;11.20;99.90;;;;;;4586022;19;20010;-36
2022/12/07 06:28:49;;;;;;;25.52;16.15;;;11.30;99.60;;;;;;4589160;19;20261;-30
2022/12/07 06:30:20;;;;;;;22.77;14.52;;;11.40;99.30;;;;;;4588201;19;20348;-27
2022/12/07 06:31:51;;;;;;;32.88;20.42;;;11.50;99.00;;;;;;4587696;19;20039;-32
2022/12/07 06:33:22;;;;;;;25.15;15.35;;;11.60;98.80;;;;;;4587624;19;20014;-29
2022/12/07 06:34:53;;;;;;;35.25;22.73;;;11.60;98.60;;;;;;4586431;19;20003;-29
2022/12/07 06:36:24;;;;;;;28.67;20.33;;;11.70;98.40;;;;;;4586626;19;20442;-36
2022/12/07 06:37:55;;;;;;;32.45;22.42;;;11.80;98.30;;;;;;4586628;19;20853;-30
2022/12/07 06:39:27;;;;;;;35.50;25.88;;;11.80;98.20;;;;;;4588016;19;20365;-32
2022/12/07 06:40:58;;;;;;;28.27;19.63;;;11.90;97.90;;;;;;4588102;19;20015;-29
2022/12/07 06:42:29;;;;;;;24.15;18.40;;;11.90;97.80;;;;;;4587565;19;20033;-30
2022/12/07 06:44:00;;;;;;;30.23;23.55;;;12.00;97.70;;;;;;4587025;19;20127;-30
2022/12/07 06:45:31;;;;;;;27.02;21.85;;;12.00;97.70;;;;;;4586760;19;20014;-30
2022/12/07 06:47:03;;;;;;;25.60;19.55;;;12.00;97.60;;;;;;4586543;19;20074;-36
2022/12/07 06:48:35;;;;;;;21.13;16.58;;;12.10;97.40;;;;;;4586258;19;20019;-34
2022/12/07 06:50:07;;;;;;;23.77;16.93;;;12.10;97.40;;;;;;4586285;19;20007;-28
2022/12/07 06:51:41;;;;;;;25.77;17.50;;;12.10;97.30;;;;;;4587089;19;20433;-29
2022/12/07 06:53:12;;;;;;;27.83;21.03;;;12.10;97.20;;;;;;4587419;19;20444;-29
2022/12/07 06:54:44;;;;;;;22.60;17.55;;;12.10;97.10;;;;;;4591499;19;21015;-32
2022/12/07 06:56:15;;;;;;;17.93;12.10;;;12.20;97.00;;;;;;4589270;19;20018;-33
2022/12/07 06:57:46;;;;;;;24.50;20.30;;;12.20;96.90;;;;;;4588375;19;20457;-30
2022/12/07 06:59:17;;;;;;;22.77;17.10;;;12.30;96.90;;;;;;4588439;19;20397;-37
2022/12/07 07:00:49;;;;;;;20.02;14.18;;;12.30;96.80;;;;;;4589454;19;20015;-37
2022/12/07 07:02:20;;;;;;;16.13;13.10;;;12.40;96.70;;;;;;4590043;19;20003;-33
2022/12/07 07:03:53;;;;;;;14.90;10.83;;;12.50;96.60;;;;;;4588500;19;21024;-28
2022/12/07 07:05:25;;;;;;;14.88;10.63;;;12.50;96.60;;;;;;4589256;19;20528;-38
2022/12/07 07:06:56;;;;;;;14.35;10.20;;;12.50;96.50;;;;;;4589220;19;20015;-37
2022/12/07 07:08:27;;;;;;;16.98;10.60;;;12.50;96.40;;;;;;4589949;19;20007;-27
2022/12/07 07:09:58;;;;;;;14.85;10.23;;;12.40;96.30;;;;;;4589322;19;20015;-31
2022/12/07 07:11:29;;;;;;;14.88;10.18;;;12.50;96.40;;;;;;4589277;19;20022;-34
2022/12/07 07:13:00;;;;;;;12.68;8.52;;;12.50;96.30;;;;;;4589940;19;20018;-36
2022/12/07 07:14:31;;;;;;;14.85;9.68;;;12.50;96.30;;;;;;4589204;19;20010;-37
2022/12/07 07:16:02;;;;;;;12.65;8.75;;;12.50;96.20;;;;;;4589387;19;20484;-34
2022/12/07 07:17:34;;;;;;;14.75;9.57;;;12.50;96.20;;;;;;4589020;19;20397;-30
2022/12/07 07:19:04;;;;;;;15.32;10.07;;;12.50;96.10;;;;;;4589186;19;20003;-35
2022/12/07 07:20:36;;;;;;;14.98;9.15;;;12.50;96.10;;;;;;4589138;19;20014;-30
2022/12/07 07:22:07;;;;;;;12.20;7.80;;;12.50;96.10;;;;;;4587829;19;20407;-29
2022/12/07 07:23:38;;;;;;;14.48;9.68;;;12.60;96.10;;;;;;4588560;19;20014;-35
2022/12/07 07:32:18;;;;;;;17.70;11.47;;;12.60;95.80;;;;;;4588792;19;20528;-30
2022/12/07 07:33:49;;;;;;;13.95;10.38;;;12.60;95.90;;;;;;4589581;19;20445;-32
2022/12/07 07:35:20;;;;;;;16.48;12.43;;;12.70;95.80;;;;;;4588706;19;20015;-31
2022/12/07 07:36:51;;;;;;;18.70;12.48;;;12.70;95.80;;;;;;4588768;19;20033;-37
2022/12/07 07:38:22;;;;;;;16.73;10.35;;;12.60;95.70;;;;;;4587520;19;20014;-33
2022/12/07 07:39:53;;;;;;;15.27;10.80;;;12.60;95.70;;;;;;4587284;19;20010;-32
2022/12/07 07:41:24;;;;;;;16.63;10.98;;;12.60;95.80;;;;;;4589284;19;20030;-28
2022/12/07 07:42:56;;;;;;;16.05;11.82;;;12.60;95.70;;;;;;4587657;19;20010;-30
2022/12/07 07:44:27;;;;;;;16.42;11.32;;;12.70;95.80;;;;;;4588645;19;20010;-31
2022/12/07 07:45:58;;;;;;;19.90;13.13;;;12.60;95.70;;;;;;4589880;19;20038;-31
2022/12/07 07:47:30;;;;;;;15.07;10.40;;;12.70;95.60;;;;;;4593340;19;20007;-28
2022/12/07 07:49:01;;;;;;;13.98;10.57;;;12.80;95.50;;;;;;4593250;19;20030;-31
2022/12/07 07:50:32;;;;;;;13.88;9.10;;;12.90;95.50;;;;;;4593519;19;20006;-28
2022/12/07 07:52:03;;;;;;;16.27;10.23;;;12.90;95.50;;;;;;4593211;19;20021;-35
2022/12/07 07:53:34;;;;;;;15.45;10.73;;;12.90;95.50;;;;;;4591739;19;20018;-35
2022/12/07 07:55:07;;;;;;;12.55;9.85;;;12.90;95.50;;;;;;4593164;19;20026;-27
2022/12/07 07:56:38;;;;;;;13.30;9.83;;;12.90;95.50;;;;;;4591697;19;20357;-29
2022/12/07 07:58:09;;;;;;;14.55;10.25;;;12.90;95.60;;;;;;4593116;19;20027;-28
2022/12/07 07:59:40;;;;;;;14.73;10.38;;;12.90;95.60;;;;;;4591980;19;20017;-29
2022/12/07 08:01:13;;;;;;;14.00;9.88;;;12.90;95.60;;;;;;4592631;19;20462;-29
2022/12/07 08:02:44;;;;;;;13.67;10.10;;;12.90;95.60;;;;;;4593247;19;20010;-30
2022/12/07 08:04:15;;;;;;;14.02;10.10;;;12.90;95.60;;;;;;4592185;19;20417;-30
2022/12/07 08:05:47;;;;;;;13.35;9.57;;;12.90;95.60;;;;;;4592626;19;20349;-28
2022/12/07 08:07:18;;;;;;;12.63;9.93;;;12.90;95.70;;;;;;4593730;19;20006;-28
2022/12/07 08:08:49;;;;;;;13.55;10.55;;;12.90;95.70;;;;;;4594066;19;20018;-31
2022/12/07 08:10:23;;;;;;;13.70;10.30;;;12.90;95.70;;;;;;4591976;19;20015;-28
2022/12/07 08:12:06;;;;;;;14.77;10.63;;;12.80;95.70;;;;;;4591233;19;20471;-28
2022/12/07 08:13:54;;;;;;;10.87;9.23;;;12.80;95.60;;;;;;4591359;19;20826;-28
2022/12/07 08:15:28;;;;;;;12.93;8.87;;;12.80;95.60;;;;;;4593569;19;20401;-28
2022/12/07 08:16:59;;;;;;;11.33;8.57;;;12.80;95.60;;;;;;4590876;19;20015;-29
2022/12/07 08:18:30;;;;;;;12.38;9.32;;;12.80;95.60;;;;;;4591970;19;20445;-28
2022/12/07 08:20:02;;;;;;;11.27;8.38;;;12.80;95.60;;;;;;4591295;19;20010;-28
2022/12/07 08:21:33;;;;;;;13.00;9.95;;;12.80;95.60;;;;;;4592537;19;20066;-28
2022/12/07 08:23:04;;;;;;;11.52;8.93;;;12.80;95.60;;;;;;4592171;19;20018;-28
2022/12/07 08:24:36;;;;;;;12.40;9.85;;;12.70;95.60;;;;;;4591280;19;20015;-28
2022/12/07 08:26:08;;;;;;;14.07;10.75;;;12.70;95.50;;;;;;4592660;19;20018;-28
2022/12/07 08:27:39;;;;;;;10.60;8.73;;;12.70;95.60;;;;;;4592016;19;20010;-29
2022/12/07 08:29:11;;;;;;;13.02;10.32;;;12.70;95.60;;;;;;4592722;19;20433;-29
2022/12/07 08:30:42;;;;;;;14.13;11.10;;;12.80;95.70;;;;;;4592909;19;20014;-28
2022/12/07 08:32:13;;;;;;;15.93;11.77;;;12.80;95.70;;;;;;4592285;19;20018;-28
2022/12/07 08:33:47;;;;;;;14.85;11.85;;;12.80;95.70;;;;;;4592110;19;20041;-29
2022/12/07 08:35:18;;;;;;;22.33;14.17;;;12.80;95.70;;;;;;4592399;19;20017;-28
2022/12/07 08:36:49;;;;;;;17.02;12.70;;;12.80;95.70;;;;;;4591830;19;20495;-28
2022/12/07 08:38:20;;;;;;;15.02;11.77;;;12.80;95.70;;;;;;4591567;19;19998;-28
2022/12/07 08:39:51;;;;;;;16.55;12.50;;;12.80;95.70;;;;;;4591983;19;20010;-29
2022/12/07 08:41:22;;;;;;;20.30;14.45;;;12.80;96.00;;;;;;4591021;19;20011;-28
2022/12/07 08:42:54;;;;;;;21.42;14.98;;;12.80;95.70;;;;;;4591141;19;20015;-29
2022/12/07 08:44:25;;;;;;;16.77;13.25;;;12.80;95.80;;;;;;4592244;19;20018;-28
2022/12/07 08:46:18;;;;;;;17.67;12.98;;;12.80;95.80;;;;;;4593950;19;20017;-29
2022/12/07 08:47:51;;;;;;;16.97;12.50;;;12.80;95.80;;;;;;4590755;19;20492;-28
2022/12/07 08:49:27;;;;;;;16.73;11.97;;;12.80;95.70;;;;;;4592001;19;20444;-28
2022/12/07 08:50:58;;;;;;;17.10;14.10;;;12.90;95.70;;;;;;4592505;19;20011;-28
2022/12/07 08:52:30;;;;;;;18.27;15.52;;;12.90;95.80;;;;;;4590769;19;20011;-29
2022/12/07 08:54:03;;;;;;;46.63;30.60;;;12.80;95.60;;;;;;4590865;19;20038;-31
2022/12/07 08:55:34;;;;;;;19.23;15.50;;;12.90;95.60;;;;;;4592353;19;20082;-28
2022/12/07 08:57:06;;;;;;;22.17;16.30;;;12.90;95.60;;;;;;4594770;19;20437;-29
2022/12/07 08:58:37;;;;;;;22.40;15.90;;;12.90;95.60;;;;;;4593530;19;20011;-28
2022/12/07 09:00:09;;;;;;;22.95;17.40;;;12.90;95.70;;;;;;4589557;19;20010;-30
2022/12/07 09:01:40;;;;;;;15.83;13.03;;;12.90;95.60;;;;;;4591223;19;20036;-28
2022/12/07 09:03:11;;;;;;;12.73;11.05;;;12.90;95.70;;;;;;4591768;19;20003;-29
2022/12/07 09:04:42;;;;;;;18.10;14.13;;;12.90;95.70;;;;;;4592008;19;20026;-28
2022/12/07 09:06:13;;;;;;;15.30;11.82;;;12.90;95.70;;;;;;4592378;19;20015;-28
2022/12/07 09:07:46;;;;;;;14.57;12.13;;;12.90;95.70;;;;;;4591053;19;20006;-29